createdAt,value
2023-01-25T00:00:31.143Z,74.20
2023-01-25T00:03:18.408Z,57.90
2023-01-25T00:05:45.532Z,73.63
2023-01-25T00:08:12.759Z,38.73
2023-01-25T00:10:39.752Z,49.47
2023-01-25T00:13:06.996Z,52.37
2023-01-25T00:15:33.971Z,59.83
2023-01-25T00:18:01.229Z,56.53
2023-01-25T00:20:28.142Z,42.77
2023-01-25T00:22:55.350Z,55.00
2023-01-25T00:25:22.173Z,54.07
2023-01-25T00:27:49.343Z,71.77
2023-01-25T00:30:16.537Z,53.20
2023-01-25T00:32:58.684Z,59.57
2023-01-25T00:35:31.667Z,39.77
2023-01-25T00:38:02.596Z,38.97
2023-01-25T00:40:29.523Z,35.47
2023-01-25T00:42:57.038Z,32.90
2023-01-25T00:45:23.980Z,33.80
2023-01-25T00:47:55.270Z,38.50
2023-01-25T00:50:22.179Z,42.03
2023-01-25T00:52:49.331Z,34.80
2023-01-25T00:55:16.471Z,34.83
2023-01-25T00:57:43.627Z,40.30
2023-01-25T01:00:11.212Z,38.23
2023-01-25T01:02:38.428Z,41.93
2023-01-25T01:05:06.091Z,38.17
2023-01-25T01:07:33.620Z,39.55
2023-01-25T01:10:00.603Z,35.57
2023-01-25T01:12:27.808Z,40.53
2023-01-25T01:14:54.722Z,45.00
2023-01-25T01:17:21.933Z,42.00
2023-01-25T01:19:48.835Z,57.03
2023-01-25T01:22:16.075Z,42.63
2023-01-25T01:24:43.018Z,39.23
2023-01-25T01:27:10.255Z,38.67
2023-01-25T01:29:37.142Z,36.20
2023-01-25T01:32:04.625Z,41.47
2023-01-25T01:34:31.622Z,50.80
2023-01-25T01:36:58.793Z,34.67
2023-01-25T01:39:26.556Z,33.00
2023-01-25T01:41:53.864Z,29.33
2023-01-25T01:44:42.093Z,26.53
2023-01-25T01:47:34.211Z,22.65
2023-01-25T01:50:17.547Z,19.40
2023-01-25T01:52:44.699Z,20.13
2023-01-25T01:55:18.270Z,21.30
2023-01-25T01:57:50.448Z,23.67
2023-01-25T02:00:17.575Z,19.10
2023-01-25T02:02:45.468Z,24.77
2023-01-25T02:05:22.860Z,20.80
2023-01-25T02:07:53.039Z,20.10
2023-01-25T02:10:21.119Z,23.57
2023-01-25T02:12:48.928Z,26.25
2023-01-25T02:15:15.904Z,23.53
2023-01-25T02:17:43.330Z,25.27
2023-01-25T02:20:22.002Z,27.13
2023-01-25T02:25:34.457Z,23.07
2023-01-25T02:28:14.515Z,22.87
2023-01-25T02:30:42.873Z,22.77
2023-01-25T02:33:10.508Z,23.55
2023-01-25T02:35:48.682Z,21.67
2023-01-25T02:38:18.243Z,23.30
2023-01-25T02:43:37.871Z,22.33
2023-01-25T02:46:14.609Z,23.70
2023-01-25T02:48:41.523Z,22.53
2023-01-25T02:51:09.878Z,24.57
2023-01-25T02:53:36.852Z,22.27
2023-01-25T02:56:04.799Z,23.97
2023-01-25T02:58:31.699Z,21.80
2023-01-25T03:00:59.325Z,22.40
2023-01-25T03:03:26.350Z,24.27
2023-01-25T03:05:53.692Z,24.23
2023-01-25T03:08:20.594Z,28.07
2023-01-25T03:10:47.786Z,24.57
2023-01-25T03:13:15.024Z,22.87
2023-01-25T03:15:42.245Z,26.47
2023-01-25T03:18:09.134Z,25.37
2023-01-25T03:20:36.398Z,22.43
2023-01-25T03:23:03.319Z,30.30
2023-01-25T03:25:30.501Z,28.60
2023-01-25T03:27:57.458Z,29.83
2023-01-25T03:30:24.783Z,30.93
2023-01-25T03:32:53.022Z,27.40
2023-01-25T03:35:20.223Z,31.42
2023-01-25T03:37:47.103Z,36.40
2023-01-25T03:40:14.341Z,35.13
2023-01-25T03:42:41.357Z,32.90
2023-01-25T03:45:09.196Z,30.50
2023-01-25T03:47:36.416Z,30.80
2023-01-25T03:50:03.796Z,29.90
2023-01-25T03:52:38.228Z,25.37
2023-01-25T03:55:06.417Z,37.43
2023-01-25T03:57:33.546Z,33.00
2023-01-25T04:00:00.769Z,34.27
2023-01-25T04:02:27.757Z,35.33
2023-01-25T04:04:55.074Z,41.20
2023-01-25T04:07:21.993Z,46.27
2023-01-25T04:09:50.256Z,39.53
2023-01-25T04:12:17.165Z,39.37
2023-01-25T04:14:45.088Z,44.43
2023-01-25T04:17:12.130Z,37.97
2023-01-25T04:19:39.329Z,37.70
2023-01-25T04:22:06.232Z,34.10
2023-01-25T04:24:33.453Z,28.60
2023-01-25T04:27:00.397Z,35.30
2023-01-25T04:29:40.040Z,42.30
2023-01-25T04:32:08.333Z,45.50
2023-01-25T04:34:35.633Z,41.10
2023-01-25T04:37:02.524Z,40.07
2023-01-25T04:39:29.710Z,42.43
2023-01-25T04:41:56.569Z,37.73
2023-01-25T04:44:23.725Z,41.47
2023-01-25T04:46:50.595Z,36.47
2023-01-25T04:49:17.890Z,34.70
2023-01-25T04:51:44.923Z,31.97
2023-01-25T04:54:12.279Z,29.27
2023-01-25T04:56:40.043Z,37.60
2023-01-25T04:59:07.254Z,38.37
2023-01-25T05:01:34.254Z,57.63
2023-01-25T05:04:01.407Z,49.87
2023-01-25T05:06:28.267Z,59.10
2023-01-25T05:08:55.439Z,68.90
2023-01-25T05:11:22.342Z,134.17
2023-01-25T05:13:49.512Z,127.67
2023-01-25T05:16:16.442Z,150.57
2023-01-25T05:18:48.881Z,207.23
2023-01-25T05:21:34.941Z,185.93
2023-01-25T05:24:02.195Z,165.07
2023-01-25T05:26:47.504Z,82.07
2023-01-25T05:29:14.729Z,50.60
2023-01-25T05:31:41.672Z,51.60
2023-01-25T05:34:09.273Z,55.10
2023-01-25T05:36:36.325Z,54.40
2023-01-25T05:39:06.689Z,66.97
2023-01-25T05:41:33.619Z,77.70
2023-01-25T05:44:01.080Z,112.03
2023-01-25T05:46:28.865Z,107.23
2023-01-25T05:48:56.355Z,78.00
2023-01-25T05:51:23.394Z,82.50
2023-01-25T05:53:50.645Z,105.67
2023-01-25T05:56:17.527Z,94.37
2023-01-25T05:58:44.712Z,69.13
2023-01-25T06:01:11.867Z,52.87
2023-01-25T06:03:39.202Z,59.67
2023-01-25T06:06:06.712Z,57.40
2023-01-25T06:08:33.887Z,53.50
2023-01-25T06:11:06.994Z,47.27
2023-01-25T06:13:34.374Z,57.90
2023-01-25T06:16:01.458Z,55.40
2023-01-25T06:18:31.552Z,51.43
2023-01-25T06:20:59.434Z,51.80
2023-01-25T06:23:26.888Z,64.83
2023-01-25T06:25:57.685Z,57.97
2023-01-25T06:28:24.909Z,60.60
2023-01-25T06:30:51.859Z,53.87
2023-01-25T06:33:19.139Z,62.60
2023-01-25T06:35:46.261Z,58.63
2023-01-25T06:38:13.459Z,56.50
2023-01-25T06:40:40.387Z,65.53
2023-01-25T06:43:12.172Z,64.90
2023-01-25T06:45:39.057Z,66.30
2023-01-25T06:48:06.426Z,63.63
2023-01-25T06:50:33.273Z,70.90
2023-01-25T06:53:00.486Z,79.33
2023-01-25T06:55:27.340Z,76.80
2023-01-25T06:57:54.572Z,73.47
2023-01-25T07:00:21.720Z,76.30
2023-01-25T07:02:48.986Z,74.03
2023-01-25T07:05:15.983Z,73.40
2023-01-25T07:07:46.734Z,69.47
2023-01-25T07:10:13.685Z,70.50
2023-01-25T07:12:40.917Z,70.53
2023-01-25T07:15:08.858Z,69.83
2023-01-25T07:17:36.508Z,63.40
2023-01-25T07:20:03.758Z,56.07
2023-01-25T07:22:31.196Z,61.50
2023-01-25T07:24:59.103Z,57.77
2023-01-25T07:27:26.294Z,40.28
2023-01-25T07:29:53.224Z,74.60
2023-01-25T07:32:20.451Z,65.60
2023-01-25T07:34:47.349Z,59.00
2023-01-25T07:37:14.530Z,54.23
2023-01-25T07:39:48.183Z,48.57
2023-01-25T07:42:15.657Z,75.83
2023-01-25T07:44:42.520Z,62.13
2023-01-25T07:47:09.833Z,60.03
2023-01-25T07:49:36.902Z,61.97
2023-01-25T07:52:04.736Z,69.57
2023-01-25T07:54:31.707Z,62.17
2023-01-25T07:56:59.028Z,59.23
2023-01-25T07:59:26.213Z,64.87
2023-01-25T08:01:53.604Z,69.37
2023-01-25T08:04:20.522Z,66.80
2023-01-25T08:06:47.697Z,66.80
2023-01-25T08:09:20.167Z,72.20
2023-01-25T08:11:49.369Z,67.10
2023-01-25T08:14:16.898Z,69.43
2023-01-25T08:16:44.119Z,66.47
2023-01-25T08:19:11.857Z,56.17
2023-01-25T08:21:39.036Z,58.77
2023-01-25T08:24:07.435Z,55.93
2023-01-25T08:26:36.079Z,45.50
2023-01-25T08:29:03.830Z,55.95
2023-01-25T08:31:33.602Z,52.73
2023-01-25T08:34:01.338Z,45.37
2023-01-25T08:36:29.252Z,42.92
2023-01-25T08:39:01.561Z,46.63
2023-01-25T08:41:30.677Z,46.90
2023-01-25T08:43:58.393Z,52.80
2023-01-25T08:46:30.277Z,40.38
2023-01-25T08:49:01.228Z,38.67
2023-01-25T08:51:28.760Z,43.80
2023-01-25T08:53:55.710Z,38.87
2023-01-25T08:56:23.050Z,35.43
2023-01-25T08:58:51.130Z,35.37
2023-01-25T09:01:20.089Z,38.10
2023-01-25T09:03:49.654Z,43.80
2023-01-25T09:06:18.365Z,37.80
2023-01-25T09:08:45.372Z,32.33
2023-01-25T09:11:15.129Z,34.37
2023-01-25T09:13:45.249Z,32.63
2023-01-25T09:16:30.690Z,29.63
2023-01-25T09:19:00.406Z,27.37
2023-01-25T09:21:28.658Z,30.53
2023-01-25T09:24:11.466Z,26.77
2023-01-25T09:26:42.906Z,25.80
2023-01-25T09:29:12.413Z,26.47
2023-01-25T09:31:46.336Z,25.50
2023-01-25T09:34:14.911Z,23.13
2023-01-25T09:36:42.360Z,28.17
2023-01-25T09:39:12.369Z,32.93
2023-01-25T09:41:42.357Z,32.63
2023-01-25T09:44:31.162Z,30.87
2023-01-25T09:47:31.004Z,27.67
2023-01-25T09:50:31.578Z,25.67
2023-01-25T09:53:05.062Z,28.77
2023-01-25T09:55:33.418Z,30.63
2023-01-25T09:58:02.842Z,20.73
2023-01-25T10:03:27.564Z,32.83
2023-01-25T10:06:00.012Z,32.07
2023-01-25T10:08:27.207Z,31.03
2023-01-25T10:11:20.511Z,36.10
2023-01-25T10:13:48.471Z,34.27
2023-01-25T10:16:30.400Z,27.37
2023-01-25T10:19:18.410Z,30.50
2023-01-25T10:22:17.511Z,28.83
2023-01-25T10:25:02.364Z,33.90
2023-01-25T10:27:53.796Z,31.03
2023-01-25T10:30:28.241Z,33.27
2023-01-25T10:33:09.963Z,29.23
2023-01-25T10:35:43.164Z,32.23
2023-01-25T10:38:35.359Z,40.10
2023-01-25T10:41:17.541Z,48.10
2023-01-25T10:43:44.502Z,41.00
2023-01-25T10:46:20.660Z,37.63
2023-01-25T10:48:47.573Z,27.23
2023-01-25T10:51:33.738Z,28.57
2023-01-25T10:54:06.407Z,28.60
2023-01-25T10:56:35.811Z,27.00
2023-01-25T11:01:36.600Z,29.37
2023-01-25T11:06:46.438Z,28.77
2023-01-25T11:09:31.501Z,27.57
2023-01-25T11:12:02.903Z,27.57
2023-01-25T11:14:32.515Z,29.07
2023-01-25T11:17:02.187Z,28.00
2023-01-25T11:19:33.807Z,26.67
2023-01-25T11:22:04.342Z,22.43
2023-01-25T11:24:35.961Z,23.27
2023-01-25T11:27:27.136Z,28.93
2023-01-25T11:30:21.248Z,24.70
2023-01-25T11:32:49.296Z,24.33
2023-01-25T11:35:21.288Z,28.57
2023-01-25T11:37:51.237Z,29.77
2023-01-25T11:40:28.618Z,17.50
2023-01-25T11:43:33.303Z,22.67
2023-01-25T11:46:22.130Z,15.27
2023-01-25T11:49:07.887Z,21.77
2023-01-25T11:51:54.101Z,17.30
2023-01-25T11:54:34.119Z,15.47
2023-01-25T11:57:10.117Z,22.67
2023-01-25T11:59:55.960Z,22.57
2023-01-25T12:03:07.505Z,14.90
2023-01-25T12:05:45.088Z,23.00
2023-01-25T12:08:11.927Z,20.17
2023-01-25T12:11:18.145Z,24.67
2023-01-25T12:13:56.327Z,20.27
2023-01-25T12:16:54.354Z,17.30
2023-01-25T12:19:32.329Z,17.87
2023-01-25T12:22:25.747Z,13.90
2023-01-25T12:25:20.800Z,13.60
2023-01-25T12:27:53.585Z,12.13
2023-01-25T12:30:27.258Z,27.00
2023-01-25T12:33:12.868Z,13.60
2023-01-25T12:35:46.818Z,18.27
2023-01-25T12:38:20.370Z,21.80
2023-01-25T12:40:55.804Z,20.63
2023-01-25T12:43:33.734Z,23.97
2023-01-25T12:46:22.129Z,28.17
2023-01-25T12:48:52.600Z,15.18
2023-01-25T12:51:22.585Z,14.20
2023-01-25T12:53:52.395Z,11.73
2023-01-25T12:56:44.034Z,11.97
2023-01-25T12:59:30.766Z,30.23
2023-01-25T13:02:29.573Z,19.97
2023-01-25T13:05:13.519Z,18.63
2023-01-25T13:07:48.136Z,25.83
2023-01-25T13:10:27.222Z,26.73
2023-01-25T13:13:04.896Z,18.20
2023-01-25T13:15:43.422Z,15.43
2023-01-25T13:18:28.451Z,20.63
2023-01-25T13:20:56.833Z,14.47
2023-01-25T13:23:32.621Z,16.77
2023-01-25T13:26:21.971Z,16.63
2023-01-25T13:31:50.929Z,27.40
2023-01-25T13:34:37.511Z,28.87
2023-01-25T13:37:26.764Z,22.77
2023-01-25T13:42:36.498Z,31.13
2023-01-25T13:45:18.799Z,33.45
2023-01-25T13:48:01.182Z,19.00
2023-01-25T13:50:34.260Z,19.17
2023-01-25T13:53:18.103Z,20.47
2023-01-25T13:55:51.316Z,22.53
2023-01-25T13:58:27.479Z,28.37
2023-01-25T14:00:55.408Z,15.07
2023-01-25T14:03:28.098Z,8.27
2023-01-25T14:05:57.536Z,14.30
2023-01-25T14:08:26.351Z,16.50
2023-01-25T14:10:54.587Z,8.68
2023-01-25T14:13:22.009Z,9.88
2023-01-25T14:15:54.788Z,15.50
2023-01-25T14:18:26.870Z,25.70
2023-01-25T14:21:15.023Z,39.30
2023-01-25T14:23:42.203Z,55.58
2023-01-25T14:26:26.832Z,38.97
2023-01-25T14:29:01.792Z,18.23
2023-01-25T14:31:36.065Z,15.80
2023-01-25T14:34:05.058Z,48.00
2023-01-25T14:36:34.752Z,13.60
2023-01-25T14:39:04.896Z,6.60
2023-01-25T14:41:43.784Z,4.87
2023-01-25T14:44:16.285Z,9.90
2023-01-25T14:46:43.172Z,7.57
2023-01-25T14:49:15.950Z,8.93
2023-01-25T14:51:46.990Z,20.43
2023-01-25T14:54:21.419Z,26.67
2023-01-25T14:56:56.663Z,20.40
2023-01-25T14:59:32.777Z,16.33
2023-01-25T15:02:25.164Z,30.93
2023-01-25T15:04:53.676Z,11.43
2023-01-25T15:07:49.354Z,6.18
2023-01-25T15:10:27.670Z,6.33
2023-01-25T15:13:15.591Z,7.77
2023-01-25T15:16:00.607Z,7.07
2023-01-25T15:18:51.545Z,27.77
2023-01-25T15:21:19.656Z,21.37
2023-01-25T15:23:48.505Z,21.63
2023-01-25T15:26:29.200Z,25.03
2023-01-25T15:28:58.786Z,22.23
2023-01-25T15:31:31.878Z,32.37
2023-01-25T15:34:00.322Z,33.80
2023-01-25T15:36:28.752Z,19.02
2023-01-25T15:38:55.674Z,17.33
2023-01-25T15:41:22.933Z,9.53
2023-01-25T15:43:49.936Z,16.37
2023-01-25T15:46:28.467Z,35.20
2023-01-25T15:48:55.574Z,30.58
2023-01-25T15:51:23.592Z,33.80
2023-01-25T15:53:50.656Z,14.60
2023-01-25T15:56:45.376Z,30.50
2023-01-25T15:59:17.586Z,45.60
2023-01-25T16:01:46.305Z,40.07
2023-01-25T16:04:13.711Z,26.45
2023-01-25T16:06:52.670Z,29.20
2023-01-25T16:09:22.602Z,29.42
2023-01-25T16:11:58.595Z,26.90
2023-01-25T16:14:31.471Z,28.57
2023-01-25T16:17:02.747Z,30.03
2023-01-25T16:19:30.144Z,40.53
2023-01-25T16:21:57.659Z,28.57
2023-01-25T16:24:24.712Z,39.97
2023-01-25T16:26:54.703Z,38.53
2023-01-25T16:29:23.142Z,52.93
2023-01-25T16:31:51.574Z,34.17
2023-01-25T16:34:20.453Z,17.60
2023-01-25T16:39:21.701Z,51.20
2023-01-25T16:41:49.418Z,28.07
2023-01-25T16:44:16.974Z,23.93
2023-01-25T16:46:44.395Z,52.57
2023-01-25T16:49:20.025Z,16.27
2023-01-25T16:51:49.172Z,17.07
2023-01-25T16:54:16.458Z,17.73
2023-01-25T16:56:43.952Z,19.33
2023-01-25T16:59:11.231Z,20.53
2023-01-25T17:01:40.936Z,47.80
2023-01-25T17:04:08.943Z,35.47
2023-01-25T17:06:39.324Z,15.95
2023-01-25T17:09:21.570Z,11.63
2023-01-25T17:11:50.183Z,11.10
2023-01-25T17:14:19.037Z,21.17
2023-01-25T17:16:48.421Z,16.27
2023-01-25T17:19:17.207Z,16.10
2023-01-25T17:24:15.406Z,20.33
2023-01-25T17:26:42.863Z,21.17
2023-01-25T17:29:10.474Z,13.93
2023-01-25T17:31:39.809Z,14.60
2023-01-25T17:34:08.270Z,12.18
2023-01-25T17:36:35.807Z,14.35
2023-01-25T17:39:07.849Z,17.93
2023-01-25T17:41:35.227Z,30.07
2023-01-25T17:44:02.494Z,30.83
2023-01-25T17:46:33.399Z,27.93
2023-01-25T17:49:02.227Z,32.07
2023-01-25T17:53:57.661Z,24.67
2023-01-25T17:56:25.532Z,26.02
2023-01-25T17:58:52.848Z,32.70
2023-01-25T18:01:25.929Z,18.80
2023-01-25T18:03:54.482Z,12.67
2023-01-25T18:06:25.262Z,21.30
2023-01-25T18:08:54.660Z,28.20
2023-01-25T18:11:24.950Z,13.77
2023-01-25T18:13:57.937Z,17.60
2023-01-25T18:16:27.977Z,25.53
2023-01-25T18:18:57.182Z,15.40
2023-01-25T18:21:27.695Z,18.53
2023-01-25T18:23:57.498Z,9.07
2023-01-25T18:26:37.161Z,9.53
2023-01-25T18:29:10.013Z,9.67
2023-01-25T18:31:37.725Z,11.10
2023-01-25T18:34:05.073Z,10.30
2023-01-25T18:36:32.304Z,28.47
2023-01-25T18:39:00.397Z,21.60
2023-01-25T18:41:27.580Z,14.93
2023-01-25T18:43:56.842Z,17.47
2023-01-25T18:46:24.178Z,14.00
2023-01-25T18:48:51.275Z,15.20
2023-01-25T18:51:18.718Z,16.47
2023-01-25T18:53:49.267Z,12.63
2023-01-25T18:56:19.220Z,14.00
2023-01-25T18:58:46.647Z,14.03
2023-01-25T19:01:17.099Z,17.27
2023-01-25T19:03:45.555Z,17.73
2023-01-25T19:06:13.886Z,14.18
2023-01-25T19:08:41.666Z,13.82
2023-01-25T19:11:14.255Z,10.40
2023-01-25T19:13:42.408Z,17.00
2023-01-25T19:16:14.212Z,17.95
2023-01-25T19:18:47.143Z,26.63
2023-01-25T19:21:20.115Z,28.87
2023-01-25T19:23:47.624Z,20.00
2023-01-25T19:26:17.751Z,27.30
2023-01-25T19:28:46.072Z,14.80
2023-01-25T19:31:18.033Z,16.25
2023-01-25T19:33:45.547Z,39.67
2023-01-25T19:36:16.736Z,16.57
2023-01-25T19:38:44.322Z,17.33
2023-01-25T19:41:14.304Z,43.67
2023-01-25T19:43:42.009Z,22.20
2023-01-25T19:46:19.081Z,33.15
2023-01-25T19:48:49.850Z,23.43
2023-01-25T19:51:21.111Z,20.13
2023-01-25T19:53:55.063Z,27.27
2023-01-25T19:56:22.325Z,22.90
2023-01-25T19:58:51.056Z,20.50
2023-01-25T20:01:23.575Z,20.52
2023-01-25T20:03:51.267Z,16.23
2023-01-25T20:06:20.467Z,20.10
2023-01-25T20:08:48.155Z,19.48
2023-01-25T20:11:20.137Z,20.83
2023-01-25T20:13:48.655Z,23.33
2023-01-25T20:16:19.629Z,16.50
2023-01-25T20:18:48.369Z,17.43
2023-01-25T20:24:00.329Z,17.53
2023-01-25T20:26:39.186Z,23.00
2023-01-25T20:29:07.329Z,24.05
2023-01-25T20:31:36.915Z,15.77
2023-01-25T20:34:11.901Z,25.20
2023-01-25T20:36:39.627Z,44.13
2023-01-25T20:39:07.453Z,32.90
2023-01-25T20:41:35.095Z,35.08
2023-01-25T20:44:11.353Z,25.30
2023-01-25T20:46:40.663Z,20.70
2023-01-25T20:51:37.859Z,26.87
2023-01-25T20:54:04.753Z,30.57
2023-01-25T20:56:32.682Z,25.93
2023-01-25T20:58:59.570Z,22.40
2023-01-25T21:01:29.842Z,30.03
2023-01-25T21:03:58.211Z,22.97
2023-01-25T21:06:27.406Z,24.63
2023-01-25T21:08:54.426Z,20.73
2023-01-25T21:11:23.274Z,21.10
2023-01-25T21:13:50.191Z,19.10
2023-01-25T21:16:21.686Z,24.33
2023-01-25T21:18:54.710Z,27.53
2023-01-25T21:21:24.158Z,20.83
2023-01-25T21:23:51.594Z,18.17
2023-01-25T21:26:21.526Z,20.93
2023-01-25T21:28:49.344Z,21.83
2023-01-25T21:31:22.125Z,19.83
2023-01-25T21:33:49.337Z,18.03
2023-01-25T21:36:17.986Z,25.20
2023-01-25T21:38:47.177Z,26.10
2023-01-25T21:41:24.207Z,24.30
2023-01-25T21:44:11.236Z,28.67
2023-01-25T21:46:38.718Z,41.20
2023-01-25T21:49:36.947Z,18.40
2023-01-25T21:52:04.372Z,23.92
2023-01-25T21:54:34.832Z,17.90
2023-01-25T21:57:05.797Z,17.40
2023-01-25T21:59:32.745Z,14.97
2023-01-25T22:02:00.076Z,17.63
2023-01-25T22:04:27.249Z,18.13
2023-01-25T22:06:55.656Z,13.97
2023-01-25T22:09:22.993Z,18.20
2023-01-25T22:11:51.014Z,19.87
2023-01-25T22:14:23.386Z,17.10
2023-01-25T22:16:51.890Z,21.90
2023-01-25T22:19:19.237Z,21.33
2023-01-25T22:21:46.888Z,20.87
2023-01-25T22:24:14.512Z,20.57
2023-01-25T22:26:47.716Z,22.93
2023-01-25T22:29:15.274Z,20.37
2023-01-25T22:31:43.224Z,17.90
2023-01-25T22:34:10.800Z,16.70
2023-01-25T22:36:38.410Z,18.43
2023-01-25T22:39:05.576Z,28.90
2023-01-25T22:41:35.959Z,28.40
2023-01-25T22:44:03.355Z,34.00
2023-01-25T22:46:30.842Z,23.30
2023-01-25T22:48:58.939Z,26.63
2023-01-25T22:51:30.492Z,24.45
2023-01-25T22:53:59.317Z,22.00
2023-01-25T22:58:54.693Z,20.93
2023-01-25T23:01:24.810Z,27.17
2023-01-25T23:03:52.884Z,26.87
2023-01-25T23:06:23.284Z,23.23
2023-01-25T23:08:53.776Z,29.13
2023-01-25T23:11:23.708Z,26.60
2023-01-25T23:14:11.353Z,31.77
2023-01-25T23:16:38.594Z,28.35
2023-01-25T23:19:06.033Z,28.30
2023-01-25T23:21:34.160Z,28.17
2023-01-25T23:24:01.946Z,31.90
2023-01-25T23:26:37.938Z,26.65
2023-01-25T23:29:08.265Z,32.43
2023-01-25T23:31:36.038Z,28.07
2023-01-25T23:34:05.081Z,22.97
2023-01-25T23:36:38.873Z,26.27
2023-01-25T23:39:06.205Z,26.27
2023-01-25T23:41:33.957Z,23.97
2023-01-25T23:44:01.996Z,23.57
2023-01-25T23:46:29.399Z,29.92
2023-01-25T23:48:56.305Z,24.27
2023-01-25T23:51:23.509Z,24.27
2023-01-25T23:53:50.495Z,26.17
2023-01-25T23:56:20.512Z,26.27
2023-01-25T23:58:49.004Z,28.90
